createdAt,value
2019-04-26T00:00:51.287Z,5.35
2019-04-26T00:03:24.707Z,4.67
2019-04-26T00:05:53.866Z,6.10
2019-04-26T00:08:22.682Z,4.15
2019-04-26T00:11:01.890Z,6.08
2019-04-26T00:13:35.126Z,4.33
2019-04-26T00:16:14.951Z,5.50
2019-04-26T00:18:43.754Z,5.20
2019-04-26T00:21:12.557Z,5.10
2019-04-26T00:23:41.740Z,4.80
2019-04-26T00:26:11.099Z,4.22
2019-04-26T00:28:40.966Z,4.92
2019-04-26T00:31:11.392Z,4.05
2019-04-26T00:33:40.334Z,3.95
2019-04-26T00:36:09.142Z,5.28
2019-04-26T00:38:37.994Z,6.25
2019-04-26T00:41:06.815Z,4.65
2019-04-26T00:43:35.740Z,6.12
2019-04-26T00:46:05.786Z,4.53
2019-04-26T00:48:36.005Z,4.22
2019-04-26T00:51:06.099Z,4.33
2019-04-26T00:53:37.032Z,4.30
2019-04-26T00:56:06.654Z,4.90
2019-04-26T00:58:36.030Z,5.37
2019-04-26T01:01:05.274Z,5.08
2019-04-26T01:03:34.595Z,6.47
2019-04-26T01:06:05.005Z,5.10
2019-04-26T01:08:33.866Z,5.65
2019-04-26T01:11:02.740Z,5.22
2019-04-26T01:13:31.824Z,4.90
2019-04-26T01:16:00.646Z,4.25
2019-04-26T01:18:29.483Z,4.20
2019-04-26T01:21:01.068Z,3.65
2019-04-26T01:23:32.234Z,4.55
2019-04-26T01:26:13.102Z,3.62
2019-04-26T01:29:05.196Z,3.80
2019-04-26T01:31:37.002Z,4.00
2019-04-26T01:34:06.162Z,4.55
2019-04-26T01:36:36.867Z,2.83
2019-04-26T01:39:10.323Z,3.92
2019-04-26T01:41:44.134Z,3.45
2019-04-26T01:44:32.894Z,3.77
2019-04-26T01:47:01.751Z,3.50
2019-04-26T01:49:30.767Z,3.12
2019-04-26T01:52:09.190Z,3.47
2019-04-26T01:54:43.397Z,4.12
2019-04-26T01:57:12.699Z,3.67
2019-04-26T01:59:45.786Z,3.55
2019-04-26T02:02:19.385Z,3.35
2019-04-26T02:04:53.091Z,3.10
2019-04-26T02:07:30.380Z,3.20
2019-04-26T02:09:59.485Z,3.83
2019-04-26T02:12:28.786Z,4.20
2019-04-26T02:14:57.614Z,3.20
2019-04-26T02:17:27.280Z,3.60
2019-04-26T02:19:56.515Z,3.37
2019-04-26T02:22:30.051Z,2.83
2019-04-26T02:24:59.100Z,3.62
2019-04-26T02:27:30.316Z,2.77
2019-04-26T02:30:00.781Z,3.27
2019-04-26T02:32:31.381Z,3.60
2019-04-26T02:35:01.780Z,3.40
2019-04-26T02:37:32.183Z,3.05
2019-04-26T02:40:01.516Z,4.00
2019-04-26T02:42:34.948Z,3.85
2019-04-26T02:45:17.239Z,4.08
2019-04-26T02:47:57.006Z,2.58
2019-04-26T02:50:35.404Z,2.08
2019-04-26T02:53:13.763Z,2.90
2019-04-26T02:56:15.644Z,3.33
2019-04-26T02:58:59.512Z,4.10
2019-04-26T03:01:29.966Z,4.05
2019-04-26T03:04:00.121Z,3.08
2019-04-26T03:06:34.278Z,3.22
2019-04-26T03:09:06.685Z,3.25
2019-04-26T03:11:41.010Z,3.12
2019-04-26T03:14:13.850Z,3.83
2019-04-26T03:16:47.151Z,3.87
2019-04-26T03:19:20.518Z,3.67
2019-04-26T03:21:55.546Z,4.12
2019-04-26T03:24:35.055Z,2.75
2019-04-26T03:27:12.293Z,3.37
2019-04-26T03:29:44.065Z,3.05
2019-04-26T03:32:39.227Z,3.42
2019-04-26T03:35:39.859Z,2.62
2019-04-26T03:38:20.574Z,3.45
2019-04-26T03:41:02.668Z,4.95
2019-04-26T03:43:39.300Z,4.45
2019-04-26T03:46:25.736Z,3.55
2019-04-26T03:49:17.057Z,3.45
2019-04-26T03:51:48.793Z,3.35
2019-04-26T03:54:32.349Z,3.55
2019-04-26T03:57:14.304Z,2.90
2019-04-26T03:59:50.144Z,3.75
2019-04-26T04:02:36.906Z,5.25
2019-04-26T04:05:28.280Z,4.78
2019-04-26T04:08:00.089Z,4.75
2019-04-26T04:10:49.910Z,5.03
2019-04-26T04:13:42.942Z,4.08
2019-04-26T04:16:26.083Z,4.45
2019-04-26T04:19:00.824Z,4.28
2019-04-26T04:21:41.374Z,3.70
2019-04-26T04:24:13.558Z,4.10
2019-04-26T04:27:09.431Z,3.42
2019-04-26T04:29:48.570Z,3.70
2019-04-26T04:32:20.587Z,3.70
2019-04-26T04:34:55.375Z,3.58
2019-04-26T04:37:27.122Z,4.08
2019-04-26T04:40:09.632Z,3.98
2019-04-26T04:43:01.300Z,3.17
2019-04-26T04:45:42.433Z,3.20
2019-04-26T04:48:27.751Z,2.95
2019-04-26T04:51:17.789Z,3.17
2019-04-26T04:54:07.635Z,3.30
2019-04-26T04:56:54.524Z,3.25
2019-04-26T04:59:26.278Z,4.20
2019-04-26T05:02:22.406Z,3.30
2019-04-26T05:05:23.175Z,2.80
2019-04-26T05:08:17.542Z,3.40
2019-04-26T05:10:55.092Z,4.00
2019-04-26T05:13:29.670Z,3.15
2019-04-26T05:16:37.930Z,3.47
2019-04-26T05:19:29.351Z,2.85
2019-04-26T05:22:10.294Z,3.77
2019-04-26T05:24:45.683Z,4.78
2019-04-26T05:27:37.085Z,3.83
2019-04-26T05:30:24.742Z,3.58
2019-04-26T05:33:14.673Z,4.70
2019-04-26T05:36:05.759Z,4.15
2019-04-26T05:38:40.478Z,4.03
2019-04-26T05:41:18.852Z,4.37
2019-04-26T05:44:17.797Z,3.90
2019-04-26T05:47:09.280Z,3.67
2019-04-26T05:50:00.755Z,5.12
2019-04-26T05:52:39.628Z,4.33
2019-04-26T05:55:34.020Z,4.97
2019-04-26T05:58:30.832Z,5.70
2019-04-26T06:01:29.232Z,4.97
2019-04-26T06:04:08.443Z,6.92
2019-04-26T06:06:41.822Z,5.40
2019-04-26T06:09:48.545Z,6.72
2019-04-26T06:12:52.474Z,6.12
2019-04-26T06:16:00.143Z,6.00
2019-04-26T06:18:42.437Z,5.67
2019-04-26T06:21:47.593Z,7.62
2019-04-26T06:24:19.369Z,9.28
2019-04-26T06:27:14.135Z,8.95
2019-04-26T06:30:01.412Z,10.38
2019-04-26T06:33:00.374Z,9.38
2019-04-26T06:35:28.581Z,13.90
2019-04-26T06:38:21.500Z,9.73
2019-04-26T06:41:21.339Z,14.63
2019-04-26T06:44:08.843Z,13.70
2019-04-26T06:47:15.692Z,9.40
2019-04-26T06:50:13.578Z,11.03
2019-04-26T06:53:12.948Z,13.70
2019-04-26T06:55:46.565Z,9.93
2019-04-26T06:58:36.728Z,9.80
2019-04-26T07:01:24.941Z,10.60
2019-04-26T07:04:12.461Z,9.70
2019-04-26T07:07:17.974Z,11.30
2019-04-26T07:10:02.187Z,9.45
2019-04-26T07:12:41.558Z,9.70
2019-04-26T07:15:28.005Z,11.12
2019-04-26T07:18:00.930Z,11.00
2019-04-26T07:20:33.847Z,10.50
2019-04-26T07:23:25.046Z,8.85
2019-04-26T07:26:14.928Z,9.78
2019-04-26T07:28:57.967Z,10.90
2019-04-26T07:31:46.009Z,9.18
2019-04-26T07:34:31.331Z,10.23
2019-04-26T07:37:19.559Z,9.58
2019-04-26T07:40:07.846Z,9.75
2019-04-26T07:42:56.567Z,9.65
2019-04-26T07:45:44.806Z,8.45
2019-04-26T07:48:42.262Z,8.40
2019-04-26T07:51:50.761Z,7.67
2019-04-26T07:54:42.381Z,7.58
2019-04-26T07:57:24.493Z,7.85
2019-04-26T08:00:30.954Z,6.55
2019-04-26T08:03:10.810Z,5.80
2019-04-26T08:06:00.891Z,5.75
2019-04-26T08:08:38.579Z,7.35
2019-04-26T08:11:10.817Z,6.87
2019-04-26T08:13:42.739Z,6.35
2019-04-26T08:16:25.353Z,6.00
2019-04-26T08:19:05.700Z,5.60
2019-04-26T08:21:42.792Z,4.97
2019-04-26T08:24:16.753Z,4.62
2019-04-26T08:26:48.551Z,4.47
2019-04-26T08:29:20.025Z,6.25
2019-04-26T08:31:53.410Z,6.10
2019-04-26T08:34:29.775Z,6.17
2019-04-26T08:37:06.687Z,5.53
2019-04-26T08:39:44.968Z,5.03
2019-04-26T08:42:12.079Z,5.45
2019-04-26T08:44:59.752Z,6.33
2019-04-26T08:47:31.537Z,5.53
2019-04-26T08:50:09.933Z,5.10
2019-04-26T08:52:38.126Z,5.47
2019-04-26T08:55:08.558Z,5.78
2019-04-26T08:57:40.041Z,6.53
2019-04-26T09:00:16.319Z,5.55
2019-04-26T09:02:55.292Z,6.35
2019-04-26T09:05:31.939Z,5.33
2019-04-26T09:08:03.921Z,5.37
2019-04-26T09:10:39.175Z,5.80
2019-04-26T09:13:08.527Z,5.22
2019-04-26T09:15:56.981Z,5.60
2019-04-26T09:18:27.852Z,5.20
2019-04-26T09:20:56.622Z,4.85
2019-04-26T09:23:39.774Z,5.17
2019-04-26T09:26:08.528Z,5.53
2019-04-26T09:28:52.893Z,3.77
2019-04-26T09:31:39.525Z,4.20
2019-04-26T09:36:39.942Z,4.05
2019-04-26T09:39:10.440Z,4.45
2019-04-26T09:41:39.399Z,4.58
2019-04-26T09:44:26.134Z,4.08
2019-04-26T09:46:56.537Z,4.40
2019-04-26T09:49:32.734Z,4.83
2019-04-26T09:52:02.754Z,4.30
2019-04-26T09:54:31.568Z,4.87
2019-04-26T09:57:00.434Z,4.87
2019-04-26T09:59:29.286Z,4.87
2019-04-26T10:01:59.459Z,5.25
2019-04-26T10:04:28.602Z,5.00
2019-04-26T10:06:59.498Z,5.58
2019-04-26T10:09:30.921Z,5.12
2019-04-26T10:12:17.912Z,5.25
2019-04-26T10:14:48.404Z,5.85
2019-04-26T10:17:22.145Z,6.12
2019-04-26T10:19:55.531Z,4.97
2019-04-26T10:22:29.327Z,5.12
2019-04-26T10:25:02.573Z,4.60
2019-04-26T10:27:32.359Z,5.28
2019-04-26T10:30:08.915Z,5.87
2019-04-26T10:32:38.620Z,5.15
2019-04-26T10:35:07.649Z,4.60
2019-04-26T10:37:39.679Z,5.80
2019-04-26T10:40:07.722Z,5.37
2019-04-26T10:42:36.627Z,6.28
2019-04-26T10:45:14.735Z,5.35
2019-04-26T10:50:10.740Z,5.08
2019-04-26T10:52:54.310Z,5.05
2019-04-26T10:55:22.653Z,5.22
2019-04-26T10:57:56.863Z,5.33
2019-04-26T11:00:27.500Z,4.95
2019-04-26T11:02:56.340Z,5.65
2019-04-26T11:05:26.919Z,5.20
2019-04-26T11:07:55.850Z,5.35
2019-04-26T11:10:24.763Z,5.42
2019-04-26T11:12:53.673Z,4.60
2019-04-26T11:15:22.560Z,4.97
2019-04-26T11:17:51.515Z,4.50
2019-04-26T11:20:20.359Z,4.70
2019-04-26T11:22:49.217Z,4.85
2019-04-26T11:25:18.065Z,4.10
2019-04-26T11:27:48.654Z,4.53
2019-04-26T11:30:20.918Z,5.00
2019-04-26T11:32:48.203Z,4.75
2019-04-26T11:35:17.060Z,4.17
2019-04-26T11:37:46.460Z,3.75
2019-04-26T11:40:15.852Z,3.30
2019-04-26T11:42:45.681Z,3.35
2019-04-26T11:45:16.156Z,3.75
2019-04-26T11:47:55.490Z,3.10
2019-04-26T11:50:16.501Z,3.42
2019-04-26T11:52:46.393Z,4.20
2019-04-26T11:55:15.356Z,3.52
2019-04-26T11:57:47.508Z,4.78
2019-04-26T12:00:20.969Z,5.45
2019-04-26T12:02:50.654Z,5.92
2019-04-26T12:05:40.201Z,5.70
2019-04-26T12:08:10.591Z,6.33
2019-04-26T12:10:40.453Z,6.30
2019-04-26T12:13:09.942Z,6.78
2019-04-26T12:15:43.214Z,6.87
2019-04-26T12:18:09.754Z,6.17
2019-04-26T12:20:39.883Z,7.03
2019-04-26T12:23:08.743Z,6.55
2019-04-26T12:25:38.753Z,7.37
2019-04-26T12:28:08.142Z,7.87
2019-04-26T12:30:37.022Z,8.80
2019-04-26T12:33:06.038Z,9.60
2019-04-26T12:35:34.876Z,8.68
2019-04-26T12:38:03.687Z,10.18
2019-04-26T12:40:32.494Z,9.08
2019-04-26T12:43:01.375Z,9.38
2019-04-26T12:45:40.850Z,8.55
2019-04-26T12:48:12.329Z,7.92
2019-04-26T12:50:42.228Z,8.58
2019-04-26T12:53:11.148Z,10.40
2019-04-26T12:55:40.042Z,9.40
2019-04-26T12:58:11.159Z,10.00
2019-04-26T13:00:52.944Z,9.55
2019-04-26T13:03:20.132Z,9.30
2019-04-26T13:05:42.785Z,9.80
2019-04-26T13:08:16.541Z,8.83
2019-04-26T13:10:48.412Z,9.28
2019-04-26T13:13:30.940Z,9.13
2019-04-26T13:16:07.238Z,9.85
2019-04-26T13:18:36.106Z,11.12
2019-04-26T13:21:08.773Z,9.30
2019-04-26T13:23:41.029Z,9.83
2019-04-26T13:26:10.698Z,8.88
2019-04-26T13:28:39.722Z,7.92
2019-04-26T13:31:09.780Z,8.58
2019-04-26T13:33:39.674Z,8.48
2019-04-26T13:36:10.615Z,7.80
2019-04-26T13:38:43.575Z,8.25
2019-04-26T13:41:10.642Z,8.00
2019-04-26T13:43:39.484Z,7.50
2019-04-26T13:46:25.007Z,7.40
2019-04-26T13:49:14.342Z,8.00
2019-04-26T13:51:45.654Z,6.55
2019-04-26T13:54:16.616Z,8.00
2019-04-26T13:56:45.140Z,8.75
2019-04-26T13:59:14.135Z,8.53
2019-04-26T14:01:43.011Z,7.75
2019-04-26T14:04:11.887Z,6.70
2019-04-26T14:06:40.946Z,8.35
2019-04-26T14:09:11.561Z,8.18
2019-04-26T14:11:40.409Z,8.98
2019-04-26T14:14:09.238Z,8.33
2019-04-26T14:16:38.177Z,8.33
2019-04-26T14:19:14.784Z,7.50
2019-04-26T14:21:37.677Z,7.08
2019-04-26T14:24:23.866Z,7.30
2019-04-26T14:26:55.651Z,6.83
2019-04-26T14:29:28.299Z,6.58
2019-04-26T14:31:55.043Z,6.60
2019-04-26T14:34:23.918Z,6.08
2019-04-26T14:37:05.528Z,5.12
2019-04-26T14:39:33.869Z,5.72
2019-04-26T14:41:57.042Z,5.55
2019-04-26T14:44:27.338Z,4.80
2019-04-26T14:46:56.766Z,4.17
2019-04-26T14:49:38.275Z,3.75
2019-04-26T14:51:56.194Z,4.45
2019-04-26T14:54:25.095Z,4.55
2019-04-26T14:56:53.930Z,5.08
2019-04-26T14:59:24.435Z,4.72
2019-04-26T15:01:57.917Z,5.12
2019-04-26T15:04:43.385Z,5.03
2019-04-26T15:07:12.299Z,4.70
2019-04-26T15:09:42.787Z,4.05
2019-04-26T15:12:14.239Z,4.80
2019-04-26T15:14:42.392Z,5.20
2019-04-26T15:17:12.484Z,4.78
2019-04-26T15:19:45.927Z,4.87
2019-04-26T15:22:12.220Z,5.40
2019-04-26T15:24:42.181Z,5.15
2019-04-26T15:27:11.273Z,5.62
2019-04-26T15:29:40.160Z,4.62
2019-04-26T15:32:08.952Z,5.72
2019-04-26T15:34:38.883Z,5.55
2019-04-26T15:37:07.727Z,5.85
2019-04-26T15:39:44.534Z,5.35
2019-04-26T15:42:23.772Z,6.35
2019-04-26T15:44:57.448Z,7.33
2019-04-26T15:47:28.051Z,7.33
2019-04-26T15:49:58.495Z,9.53
2019-04-26T15:52:30.125Z,8.13
2019-04-26T15:54:58.864Z,8.65
2019-04-26T15:57:32.406Z,9.10
2019-04-26T15:59:59.269Z,9.60
2019-04-26T16:02:28.150Z,8.35
2019-04-26T16:04:56.963Z,8.88
2019-04-26T16:07:28.880Z,8.65
2019-04-26T16:09:57.581Z,8.90
2019-04-26T16:12:27.269Z,10.78
2019-04-26T16:14:56.220Z,10.30
2019-04-26T16:17:25.940Z,9.80
2019-04-26T16:19:56.162Z,10.90
2019-04-26T16:22:25.752Z,11.70
2019-04-26T16:24:58.195Z,10.78
2019-04-26T16:27:32.405Z,13.15
2019-04-26T16:30:02.637Z,10.50
2019-04-26T16:32:36.216Z,11.12
2019-04-26T16:35:07.206Z,10.72
2019-04-26T16:37:36.039Z,10.35
2019-04-26T16:40:07.871Z,13.18
2019-04-26T16:42:37.447Z,11.10
2019-04-26T16:45:08.182Z,12.37
2019-04-26T16:47:45.196Z,12.45
2019-04-26T16:50:08.056Z,11.25
2019-04-26T16:52:42.324Z,10.98
2019-04-26T16:57:43.862Z,10.90
2019-04-26T17:00:16.397Z,10.70
2019-04-26T17:02:44.020Z,10.15
2019-04-26T17:05:21.150Z,9.88
2019-04-26T17:07:45.916Z,10.70
2019-04-26T17:09:38.415Z,10.75
2019-04-26T17:10:16.609Z,10.25
2019-04-26T17:12:46.255Z,10.28
2019-04-26T17:15:17.465Z,9.03
2019-04-26T17:17:50.129Z,10.10
2019-04-26T17:20:16.287Z,9.40
2019-04-26T17:22:59.640Z,9.15
2019-04-26T17:25:41.975Z,9.98
2019-04-26T17:28:14.017Z,9.88
2019-04-26T17:30:45.024Z,8.40
2019-04-26T17:33:13.955Z,9.35
2019-04-26T17:35:42.801Z,8.33
2019-04-26T17:38:11.684Z,7.75
2019-04-26T17:40:41.089Z,9.10
2019-04-26T17:43:11.432Z,7.35
2019-04-26T17:45:44.017Z,7.87
2019-04-26T17:48:14.057Z,5.78
2019-04-26T17:50:42.382Z,7.45
2019-04-26T17:53:26.225Z,8.85
2019-04-26T17:55:54.450Z,7.37
2019-04-26T17:58:27.480Z,10.00
2019-04-26T18:00:51.792Z,8.20
2019-04-26T18:03:21.538Z,7.37
2019-04-26T18:05:57.142Z,7.75
2019-04-26T18:08:36.217Z,7.67
2019-04-26T18:10:51.623Z,7.03
2019-04-26T18:13:22.150Z,8.63
2019-04-26T18:15:52.737Z,7.30
2019-04-26T18:18:40.325Z,7.20
2019-04-26T18:21:27.448Z,8.20
2019-04-26T18:23:57.284Z,8.15
2019-04-26T18:26:26.234Z,7.25
2019-04-26T18:28:55.372Z,7.22
2019-04-26T18:31:28.927Z,6.83
2019-04-26T18:34:00.510Z,6.37
2019-04-26T18:36:27.668Z,6.87
2019-04-26T18:38:55.713Z,5.10
2019-04-26T18:41:28.628Z,6.37
2019-04-26T18:43:59.920Z,5.83
2019-04-26T18:46:31.888Z,5.92
2019-04-26T18:49:00.398Z,6.35
2019-04-26T18:51:29.243Z,13.10
2019-04-26T18:54:02.777Z,8.83
2019-04-26T18:56:39.723Z,8.57
2019-04-26T18:59:07.279Z,7.92
2019-04-26T19:01:40.896Z,7.17
2019-04-26T19:04:12.505Z,10.00
2019-04-26T19:06:41.949Z,7.50
2019-04-26T19:09:09.054Z,6.55
2019-04-26T19:11:42.093Z,6.30
2019-04-26T19:14:19.075Z,4.60
2019-04-26T19:16:58.872Z,5.47
2019-04-26T19:19:43.982Z,5.60
2019-04-26T19:22:15.473Z,6.25
2019-04-26T19:24:43.540Z,5.78
2019-04-26T19:27:12.576Z,5.12
2019-04-26T19:29:43.235Z,5.10
2019-04-26T19:32:12.038Z,4.62
2019-04-26T19:34:42.105Z,4.30
2019-04-26T19:37:11.111Z,4.95
2019-04-26T19:39:40.049Z,5.87
2019-04-26T19:42:08.852Z,5.85
2019-04-26T19:44:37.728Z,4.62
2019-04-26T19:47:23.507Z,5.17
2019-04-26T19:50:13.338Z,4.40
2019-04-26T19:52:55.456Z,4.58
2019-04-26T19:55:41.283Z,5.25
2019-04-26T19:58:16.005Z,5.47
2019-04-26T20:00:43.433Z,4.33
2019-04-26T20:03:13.497Z,4.75
2019-04-26T20:05:44.072Z,3.95
2019-04-26T20:08:13.279Z,6.33
2019-04-26T20:10:45.475Z,5.37
2019-04-26T20:13:15.069Z,5.60
2019-04-26T20:15:43.182Z,5.87
2019-04-26T20:18:12.341Z,5.05
2019-04-26T20:20:41.513Z,5.12
2019-04-26T20:23:12.255Z,8.23
2019-04-26T20:25:41.282Z,5.30
2019-04-26T20:28:10.087Z,4.42
2019-04-26T20:30:46.589Z,4.78
2019-04-26T20:33:15.409Z,6.45
2019-04-26T20:35:44.249Z,6.87
2019-04-26T20:38:14.113Z,6.83
2019-04-26T20:40:43.381Z,5.97
2019-04-26T20:43:23.753Z,5.92
2019-04-26T20:46:02.042Z,5.45
2019-04-26T20:48:14.628Z,5.22
2019-04-26T20:50:43.439Z,5.03
2019-04-26T20:53:12.380Z,4.05
2019-04-26T20:55:42.744Z,5.03
2019-04-26T20:58:11.922Z,4.62
2019-04-26T21:00:53.537Z,4.60
2019-04-26T21:03:23.042Z,4.05
2019-04-26T21:05:46.121Z,5.30
2019-04-26T21:08:12.552Z,4.15
2019-04-26T21:10:41.781Z,5.28
2019-04-26T21:13:12.232Z,3.77
2019-04-26T21:15:53.410Z,7.30
2019-04-26T21:18:12.342Z,4.50
2019-04-26T21:20:42.495Z,4.03
2019-04-26T21:23:13.260Z,3.90
2019-04-26T21:25:43.583Z,4.42
2019-04-26T21:28:17.041Z,3.58
2019-04-26T21:30:47.427Z,3.30
2019-04-26T21:33:35.880Z,3.50
2019-04-26T21:36:05.988Z,2.83
2019-04-26T21:38:39.251Z,3.15
2019-04-26T21:41:11.553Z,4.30
2019-04-26T21:43:40.162Z,3.77
2019-04-26T21:46:14.319Z,2.98
2019-04-26T21:48:41.931Z,3.27
2019-04-26T21:51:14.557Z,3.42
2019-04-26T21:53:42.201Z,2.95
2019-04-26T21:56:11.572Z,3.80
2019-04-26T21:58:41.291Z,3.00
2019-04-26T22:01:15.610Z,3.00
2019-04-26T22:03:47.534Z,3.70
2019-04-26T22:06:14.239Z,3.95
2019-04-26T22:08:44.839Z,4.58
2019-04-26T22:11:19.789Z,7.28
2019-04-26T22:13:54.442Z,3.80
2019-04-26T22:16:34.136Z,3.30
2019-04-26T22:19:12.741Z,3.52
2019-04-26T22:22:04.297Z,3.02
2019-04-26T22:24:33.700Z,3.95
2019-04-26T22:27:03.818Z,3.55
2019-04-26T22:29:33.342Z,3.50
2019-04-26T22:32:03.660Z,3.70
2019-04-26T22:34:32.631Z,3.52
2019-04-26T22:37:10.940Z,2.85
2019-04-26T22:39:39.600Z,3.92
2019-04-26T22:42:03.727Z,3.75
2019-04-26T22:44:50.723Z,3.60
2019-04-26T22:47:21.184Z,3.90
2019-04-26T22:49:50.020Z,3.47
2019-04-26T22:52:18.935Z,3.40
2019-04-26T22:54:47.724Z,4.25
2019-04-26T22:57:16.698Z,3.75
2019-04-26T22:59:49.895Z,5.17
2019-04-26T23:02:18.308Z,3.17
2019-04-26T23:04:47.652Z,3.12
2019-04-26T23:07:18.219Z,3.77
2019-04-26T23:09:51.860Z,3.02
2019-04-26T23:12:25.078Z,3.27
2019-04-26T23:14:54.921Z,3.10
2019-04-26T23:17:40.207Z,4.00
2019-04-26T23:20:19.432Z,3.42
2019-04-26T23:22:49.353Z,2.98
2019-04-26T23:25:18.213Z,3.98
2019-04-26T23:27:50.446Z,4.10
2019-04-26T23:30:17.655Z,3.10
2019-04-26T23:32:48.471Z,3.70
2019-04-26T23:35:16.957Z,3.05
2019-04-26T23:37:45.768Z,3.85
2019-04-26T23:40:14.641Z,2.80
2019-04-26T23:42:43.670Z,2.72
2019-04-26T23:45:14.402Z,3.47
2019-04-26T23:47:43.814Z,2.50
2019-04-26T23:50:14.052Z,2.02
2019-04-26T23:52:44.453Z,2.10
2019-04-26T23:55:13.560Z,2.40
2019-04-26T23:57:43.474Z,2.20
